sensor_id;sensor_type;location;lat;lon;timestamp;P1;durP1;ratioP1;P2;durP2;ratioP2
2558;SDS011;1289;53.488;10.006;2023-02-02T00:01:33;19.83;;;6.53;;
2558;SDS011;1289;53.488;10.006;2023-02-02T00:04:00;12.43;;;4.50;;
2558;SDS011;1289;53.488;10.006;2023-02-02T00:06:27;11.70;;;6.03;;
2558;SDS011;1289;53.488;10.006;2023-02-02T00:08:56;11.57;;;4.43;;
2558;SDS011;1289;53.488;10.006;2023-02-02T00:11:23;14.40;;;4.80;;
2558;SDS011;1289;53.488;10.006;2023-02-02T00:13:50;10.80;;;5.40;;
2558;SDS011;1289;53.488;10.006;2023-02-02T00:16:21;21.17;;;6.53;;
2558;SDS011;1289;53.488;10.006;2023-02-02T00:19:00;12.90;;;4.60;;
2558;SDS011;1289;53.488;10.006;2023-02-02T00:21:28;11.27;;;4.60;;
2558;SDS011;1289;53.488;10.006;2023-02-02T00:23:56;25.03;;;5.60;;
2558;SDS011;1289;53.488;10.006;2023-02-02T00:26:23;10.80;;;4.97;;
2558;SDS011;1289;53.488;10.006;2023-02-02T00:28:50;14.50;;;5.83;;
2558;SDS011;1289;53.488;10.006;2023-02-02T00:31:16;16.37;;;4.63;;
2558;SDS011;1289;53.488;10.006;2023-02-02T00:33:43;7.93;;;4.50;;
2558;SDS011;1289;53.488;10.006;2023-02-02T00:36:10;25.37;;;6.00;;
2558;SDS011;1289;53.488;10.006;2023-02-02T00:38:37;17.67;;;6.03;;
2558;SDS011;1289;53.488;10.006;2023-02-02T00:41:05;12.50;;;5.13;;
2558;SDS011;1289;53.488;10.006;2023-02-02T00:43:32;12.03;;;4.73;;
2558;SDS011;1289;53.488;10.006;2023-02-02T00:45:58;12.70;;;4.67;;
2558;SDS011;1289;53.488;10.006;2023-02-02T00:48:24;11.80;;;4.60;;
2558;SDS011;1289;53.488;10.006;2023-02-02T00:50:51;9.43;;;5.00;;
2558;SDS011;1289;53.488;10.006;2023-02-02T00:53:17;13.07;;;5.37;;
2558;SDS011;1289;53.488;10.006;2023-02-02T00:55:45;13.40;;;5.03;;
2558;SDS011;1289;53.488;10.006;2023-02-02T00:58:13;10.50;;;4.73;;
2558;SDS011;1289;53.488;10.006;2023-02-02T01:00:40;14.50;;;5.70;;
2558;SDS011;1289;53.488;10.006;2023-02-02T01:03:07;9.20;;;5.30;;
2558;SDS011;1289;53.488;10.006;2023-02-02T01:05:35;12.00;;;4.70;;
2558;SDS011;1289;53.488;10.006;2023-02-02T01:08:02;14.73;;;4.90;;
2558;SDS011;1289;53.488;10.006;2023-02-02T01:10:29;20.03;;;4.53;;
2558;SDS011;1289;53.488;10.006;2023-02-02T01:12:57;11.47;;;4.77;;
2558;SDS011;1289;53.488;10.006;2023-02-02T01:15:25;12.67;;;3.90;;
2558;SDS011;1289;53.488;10.006;2023-02-02T01:17:54;14.03;;;5.00;;
2558;SDS011;1289;53.488;10.006;2023-02-02T01:20:21;14.90;;;4.57;;
2558;SDS011;1289;53.488;10.006;2023-02-02T01:22:49;7.03;;;3.90;;
2558;SDS011;1289;53.488;10.006;2023-02-02T01:25:16;14.80;;;4.70;;
2558;SDS011;1289;53.488;10.006;2023-02-02T01:27:43;10.03;;;4.00;;
2558;SDS011;1289;53.488;10.006;2023-02-02T01:30:10;13.83;;;4.83;;
2558;SDS011;1289;53.488;10.006;2023-02-02T01:32:38;8.13;;;4.30;;
2558;SDS011;1289;53.488;10.006;2023-02-02T01:35:05;12.73;;;5.10;;
2558;SDS011;1289;53.488;10.006;2023-02-02T01:37:32;10.63;;;4.60;;
2558;SDS011;1289;53.488;10.006;2023-02-02T01:39:58;9.50;;;4.63;;
2558;SDS011;1289;53.488;10.006;2023-02-02T01:42:50;17.43;;;5.27;;
2558;SDS011;1289;53.488;10.006;2023-02-02T01:45:19;13.47;;;4.37;;
2558;SDS011;1289;53.488;10.006;2023-02-02T01:47:49;6.33;;;5.30;;
2558;SDS011;1289;53.488;10.006;2023-02-02T01:50:18;12.87;;;5.20;;
2558;SDS011;1289;53.488;10.006;2023-02-02T01:52:47;17.43;;;5.53;;
2558;SDS011;1289;53.488;10.006;2023-02-02T01:55:16;11.50;;;4.20;;
2558;SDS011;1289;53.488;10.006;2023-02-02T01:57:45;13.03;;;4.47;;
2558;SDS011;1289;53.488;10.006;2023-02-02T02:00:15;15.93;;;5.50;;
2558;SDS011;1289;53.488;10.006;2023-02-02T02:02:50;9.00;;;5.00;;
2558;SDS011;1289;53.488;10.006;2023-02-02T02:05:22;19.67;;;5.63;;
2558;SDS011;1289;53.488;10.006;2023-02-02T02:07:52;8.10;;;4.97;;
2558;SDS011;1289;53.488;10.006;2023-02-02T02:10:19;11.73;;;4.93;;
2558;SDS011;1289;53.488;10.006;2023-02-02T02:12:46;10.00;;;4.70;;
2558;SDS011;1289;53.488;10.006;2023-02-02T02:15:13;14.07;;;5.70;;
2558;SDS011;1289;53.488;10.006;2023-02-02T02:18:02;12.50;;;4.60;;
2558;SDS011;1289;53.488;10.006;2023-02-02T02:20:50;8.20;;;4.80;;
2558;SDS011;1289;53.488;10.006;2023-02-02T02:24:09;11.10;;;4.53;;
2558;SDS011;1289;53.488;10.006;2023-02-02T02:27:38;8.40;;;5.97;;
2558;SDS011;1289;53.488;10.006;2023-02-02T02:30:34;16.60;;;4.97;;
2558;SDS011;1289;53.488;10.006;2023-02-02T02:33:09;20.90;;;5.33;;
2558;SDS011;1289;53.488;10.006;2023-02-02T02:35:41;13.10;;;4.40;;
2558;SDS011;1289;53.488;10.006;2023-02-02T02:38:15;11.00;;;5.17;;
2558;SDS011;1289;53.488;10.006;2023-02-02T02:40:46;13.00;;;5.60;;
2558;SDS011;1289;53.488;10.006;2023-02-02T02:43:17;12.83;;;4.70;;
2558;SDS011;1289;53.488;10.006;2023-02-02T02:45:46;10.83;;;4.73;;
2558;SDS011;1289;53.488;10.006;2023-02-02T02:48:16;13.67;;;4.70;;
2558;SDS011;1289;53.488;10.006;2023-02-02T02:50:42;14.00;;;6.23;;
2558;SDS011;1289;53.488;10.006;2023-02-02T02:53:10;16.07;;;5.23;;
2558;SDS011;1289;53.488;10.006;2023-02-02T02:55:40;16.07;;;5.67;;
2558;SDS011;1289;53.488;10.006;2023-02-02T02:58:12;21.77;;;6.67;;
2558;SDS011;1289;53.488;10.006;2023-02-02T03:00:52;12.33;;;5.47;;
2558;SDS011;1289;53.488;10.006;2023-02-02T03:03:28;12.93;;;5.10;;
2558;SDS011;1289;53.488;10.006;2023-02-02T03:06:09;18.07;;;6.10;;
2558;SDS011;1289;53.488;10.006;2023-02-02T03:08:38;12.90;;;5.23;;
2558;SDS011;1289;53.488;10.006;2023-02-02T03:11:06;19.50;;;5.93;;
2558;SDS011;1289;53.488;10.006;2023-02-02T03:13:34;17.93;;;5.20;;
2558;SDS011;1289;53.488;10.006;2023-02-02T03:16:00;16.43;;;5.67;;
2558;SDS011;1289;53.488;10.006;2023-02-02T03:18:29;13.83;;;4.03;;
2558;SDS011;1289;53.488;10.006;2023-02-02T03:20:57;9.00;;;3.90;;
2558;SDS011;1289;53.488;10.006;2023-02-02T03:23:23;6.60;;;3.93;;
2558;SDS011;1289;53.488;10.006;2023-02-02T03:25:50;13.60;;;4.90;;
2558;SDS011;1289;53.488;10.006;2023-02-02T03:28:17;16.37;;;5.20;;
2558;SDS011;1289;53.488;10.006;2023-02-02T03:30:44;9.03;;;4.10;;
2558;SDS011;1289;53.488;10.006;2023-02-02T03:33:11;10.83;;;4.73;;
2558;SDS011;1289;53.488;10.006;2023-02-02T03:35:41;8.33;;;5.07;;
2558;SDS011;1289;53.488;10.006;2023-02-02T03:38:07;10.43;;;4.07;;
2558;SDS011;1289;53.488;10.006;2023-02-02T03:40:34;11.70;;;5.73;;
2558;SDS011;1289;53.488;10.006;2023-02-02T03:43:00;13.80;;;4.80;;
2558;SDS011;1289;53.488;10.006;2023-02-02T03:45:27;9.53;;;3.77;;
2558;SDS011;1289;53.488;10.006;2023-02-02T03:47:54;7.43;;;4.10;;
2558;SDS011;1289;53.488;10.006;2023-02-02T03:50:20;8.97;;;4.53;;
2558;SDS011;1289;53.488;10.006;2023-02-02T03:52:50;12.80;;;4.67;;
2558;SDS011;1289;53.488;10.006;2023-02-02T03:55:17;9.33;;;5.00;;
2558;SDS011;1289;53.488;10.006;2023-02-02T03:57:43;11.00;;;4.23;;
2558;SDS011;1289;53.488;10.006;2023-02-02T04:00:10;10.93;;;3.43;;
2558;SDS011;1289;53.488;10.006;2023-02-02T04:02:37;13.67;;;3.83;;
2558;SDS011;1289;53.488;10.006;2023-02-02T04:05:04;11.13;;;4.23;;
2558;SDS011;1289;53.488;10.006;2023-02-02T04:07:31;7.20;;;3.37;;
2558;SDS011;1289;53.488;10.006;2023-02-02T04:09:59;6.70;;;3.40;;
2558;SDS011;1289;53.488;10.006;2023-02-02T04:12:26;6.90;;;3.53;;
2558;SDS011;1289;53.488;10.006;2023-02-02T04:14:52;9.40;;;4.13;;
2558;SDS011;1289;53.488;10.006;2023-02-02T04:17:19;8.60;;;3.77;;
2558;SDS011;1289;53.488;10.006;2023-02-02T04:19:46;6.53;;;3.17;;
2558;SDS011;1289;53.488;10.006;2023-02-02T04:22:12;8.43;;;4.63;;
2558;SDS011;1289;53.488;10.006;2023-02-02T04:24:39;10.33;;;3.73;;
2558;SDS011;1289;53.488;10.006;2023-02-02T04:27:07;11.80;;;5.27;;
2558;SDS011;1289;53.488;10.006;2023-02-02T04:29:33;12.77;;;5.07;;
2558;SDS011;1289;53.488;10.006;2023-02-02T04:32:00;9.43;;;4.17;;
2558;SDS011;1289;53.488;10.006;2023-02-02T04:34:27;10.67;;;4.47;;
2558;SDS011;1289;53.488;10.006;2023-02-02T04:36:53;7.00;;;4.43;;
2558;SDS011;1289;53.488;10.006;2023-02-02T04:39:20;11.60;;;4.70;;
2558;SDS011;1289;53.488;10.006;2023-02-02T04:41:47;7.60;;;4.10;;
2558;SDS011;1289;53.488;10.006;2023-02-02T04:44:15;7.73;;;4.27;;
2558;SDS011;1289;53.488;10.006;2023-02-02T04:46:42;14.63;;;5.40;;
2558;SDS011;1289;53.488;10.006;2023-02-02T04:49:09;6.77;;;3.87;;
2558;SDS011;1289;53.488;10.006;2023-02-02T04:51:36;13.17;;;4.60;;
2558;SDS011;1289;53.488;10.006;2023-02-02T04:54:03;10.87;;;4.67;;
2558;SDS011;1289;53.488;10.006;2023-02-02T04:56:30;7.93;;;4.63;;
2558;SDS011;1289;53.488;10.006;2023-02-02T04:58:57;8.37;;;3.97;;
2558;SDS011;1289;53.488;10.006;2023-02-02T05:01:25;12.60;;;4.00;;
2558;SDS011;1289;53.488;10.006;2023-02-02T05:03:53;11.13;;;4.40;;
2558;SDS011;1289;53.488;10.006;2023-02-02T05:06:20;11.93;;;4.57;;
2558;SDS011;1289;53.488;10.006;2023-02-02T05:08:46;15.50;;;5.17;;
2558;SDS011;1289;53.488;10.006;2023-02-02T05:11:14;8.70;;;4.70;;
2558;SDS011;1289;53.488;10.006;2023-02-02T05:13:44;13.60;;;4.57;;
2558;SDS011;1289;53.488;10.006;2023-02-02T05:16:11;13.07;;;4.43;;
2558;SDS011;1289;53.488;10.006;2023-02-02T05:18:39;13.03;;;4.80;;
2558;SDS011;1289;53.488;10.006;2023-02-02T05:21:06;16.10;;;5.80;;
2558;SDS011;1289;53.488;10.006;2023-02-02T05:23:32;15.30;;;5.33;;
2558;SDS011;1289;53.488;10.006;2023-02-02T05:25:59;9.83;;;4.97;;
2558;SDS011;1289;53.488;10.006;2023-02-02T05:28:26;11.17;;;5.00;;
2558;SDS011;1289;53.488;10.006;2023-02-02T05:30:53;15.93;;;6.87;;
2558;SDS011;1289;53.488;10.006;2023-02-02T05:33:20;13.53;;;4.90;;
2558;SDS011;1289;53.488;10.006;2023-02-02T05:35:47;14.13;;;5.40;;
2558;SDS011;1289;53.488;10.006;2023-02-02T05:38:14;10.93;;;5.10;;
2558;SDS011;1289;53.488;10.006;2023-02-02T05:40:41;13.30;;;5.43;;
2558;SDS011;1289;53.488;10.006;2023-02-02T05:43:08;13.47;;;4.70;;
2558;SDS011;1289;53.488;10.006;2023-02-02T05:45:34;16.10;;;5.37;;
2558;SDS011;1289;53.488;10.006;2023-02-02T05:48:01;20.70;;;5.10;;
2558;SDS011;1289;53.488;10.006;2023-02-02T05:50:27;22.23;;;6.57;;
2558;SDS011;1289;53.488;10.006;2023-02-02T05:53:03;10.20;;;4.87;;
2558;SDS011;1289;53.488;10.006;2023-02-02T05:55:30;18.30;;;4.50;;
2558;SDS011;1289;53.488;10.006;2023-02-02T05:57:56;14.57;;;4.93;;
2558;SDS011;1289;53.488;10.006;2023-02-02T06:00:23;24.90;;;6.13;;
2558;SDS011;1289;53.488;10.006;2023-02-02T06:02:50;17.20;;;6.67;;
2558;SDS011;1289;53.488;10.006;2023-02-02T06:05:16;25.23;;;5.87;;
2558;SDS011;1289;53.488;10.006;2023-02-02T06:07:43;17.13;;;5.83;;
2558;SDS011;1289;53.488;10.006;2023-02-02T06:10:11;20.17;;;5.93;;
2558;SDS011;1289;53.488;10.006;2023-02-02T06:12:37;13.63;;;4.93;;
2558;SDS011;1289;53.488;10.006;2023-02-02T06:15:04;14.73;;;5.90;;
2558;SDS011;1289;53.488;10.006;2023-02-02T06:17:31;18.93;;;5.30;;
2558;SDS011;1289;53.488;10.006;2023-02-02T06:19:58;20.33;;;5.60;;
2558;SDS011;1289;53.488;10.006;2023-02-02T06:22:25;15.53;;;4.63;;
2558;SDS011;1289;53.488;10.006;2023-02-02T06:24:51;14.97;;;4.63;;
2558;SDS011;1289;53.488;10.006;2023-02-02T06:27:19;10.30;;;4.87;;
2558;SDS011;1289;53.488;10.006;2023-02-02T06:29:46;18.33;;;5.00;;
2558;SDS011;1289;53.488;10.006;2023-02-02T06:32:13;21.27;;;5.63;;
2558;SDS011;1289;53.488;10.006;2023-02-02T06:34:39;14.10;;;5.60;;
2558;SDS011;1289;53.488;10.006;2023-02-02T06:37:06;14.30;;;5.17;;
2558;SDS011;1289;53.488;10.006;2023-02-02T06:39:33;19.37;;;7.73;;
2558;SDS011;1289;53.488;10.006;2023-02-02T06:41:59;18.00;;;5.53;;
2558;SDS011;1289;53.488;10.006;2023-02-02T06:44:27;13.00;;;5.27;;
2558;SDS011;1289;53.488;10.006;2023-02-02T06:46:54;16.13;;;5.40;;
2558;SDS011;1289;53.488;10.006;2023-02-02T06:49:21;10.17;;;4.63;;
2558;SDS011;1289;53.488;10.006;2023-02-02T06:51:47;24.00;;;6.73;;
2558;SDS011;1289;53.488;10.006;2023-02-02T06:54:14;15.97;;;5.47;;
2558;SDS011;1289;53.488;10.006;2023-02-02T06:56:41;16.00;;;5.30;;
2558;SDS011;1289;53.488;10.006;2023-02-02T06:59:07;12.93;;;5.00;;
2558;SDS011;1289;53.488;10.006;2023-02-02T07:01:36;18.50;;;5.77;;
2558;SDS011;1289;53.488;10.006;2023-02-02T07:04:02;11.30;;;5.53;;
2558;SDS011;1289;53.488;10.006;2023-02-02T07:06:29;13.17;;;5.60;;
2558;SDS011;1289;53.488;10.006;2023-02-02T07:08:55;24.73;;;5.87;;
2558;SDS011;1289;53.488;10.006;2023-02-02T07:11:22;8.77;;;4.37;;
2558;SDS011;1289;53.488;10.006;2023-02-02T07:13:49;11.07;;;4.93;;
2558;SDS011;1289;53.488;10.006;2023-02-02T07:16:16;5.40;;;3.70;;
2558;SDS011;1289;53.488;10.006;2023-02-02T07:18:44;7.17;;;3.60;;
2558;SDS011;1289;53.488;10.006;2023-02-02T07:21:16;12.90;;;4.40;;
2558;SDS011;1289;53.488;10.006;2023-02-02T07:23:44;10.83;;;5.10;;
2558;SDS011;1289;53.488;10.006;2023-02-02T07:26:11;16.00;;;6.03;;
2558;SDS011;1289;53.488;10.006;2023-02-02T07:28:39;7.50;;;4.30;;
2558;SDS011;1289;53.488;10.006;2023-02-02T07:31:12;11.20;;;4.43;;
2558;SDS011;1289;53.488;10.006;2023-02-02T07:33:40;10.50;;;4.30;;
2558;SDS011;1289;53.488;10.006;2023-02-02T07:36:08;9.70;;;5.00;;
2558;SDS011;1289;53.488;10.006;2023-02-02T07:38:35;17.00;;;5.40;;
2558;SDS011;1289;53.488;10.006;2023-02-02T07:41:02;15.40;;;5.40;;
2558;SDS011;1289;53.488;10.006;2023-02-02T07:43:29;17.13;;;5.60;;
2558;SDS011;1289;53.488;10.006;2023-02-02T07:45:58;14.90;;;5.63;;
2558;SDS011;1289;53.488;10.006;2023-02-02T07:48:26;13.67;;;4.90;;
2558;SDS011;1289;53.488;10.006;2023-02-02T07:50:56;10.80;;;4.97;;
2558;SDS011;1289;53.488;10.006;2023-02-02T07:53:25;14.67;;;5.20;;
2558;SDS011;1289;53.488;10.006;2023-02-02T07:55:52;13.07;;;4.93;;
2558;SDS011;1289;53.488;10.006;2023-02-02T07:58:19;15.90;;;4.30;;
2558;SDS011;1289;53.488;10.006;2023-02-02T08:00:45;9.93;;;5.17;;
2558;SDS011;1289;53.488;10.006;2023-02-02T08:03:12;11.37;;;4.00;;
2558;SDS011;1289;53.488;10.006;2023-02-02T08:05:38;11.60;;;4.30;;
2558;SDS011;1289;53.488;10.006;2023-02-02T08:08:05;12.47;;;4.43;;
2558;SDS011;1289;53.488;10.006;2023-02-02T08:10:33;10.90;;;4.30;;
2558;SDS011;1289;53.488;10.006;2023-02-02T08:12:59;10.40;;;4.53;;
2558;SDS011;1289;53.488;10.006;2023-02-02T08:15:26;8.73;;;3.87;;
2558;SDS011;1289;53.488;10.006;2023-02-02T08:17:53;10.37;;;4.83;;
2558;SDS011;1289;53.488;10.006;2023-02-02T08:20:19;14.97;;;6.70;;
2558;SDS011;1289;53.488;10.006;2023-02-02T08:22:46;10.57;;;5.30;;
2558;SDS011;1289;53.488;10.006;2023-02-02T08:25:13;10.73;;;4.70;;
2558;SDS011;1289;53.488;10.006;2023-02-02T08:27:41;13.67;;;5.73;;
2558;SDS011;1289;53.488;10.006;2023-02-02T08:30:08;12.67;;;6.27;;
2558;SDS011;1289;53.488;10.006;2023-02-02T08:32:35;8.10;;;4.27;;
2558;SDS011;1289;53.488;10.006;2023-02-02T08:35:02;7.87;;;3.63;;
2558;SDS011;1289;53.488;10.006;2023-02-02T08:37:29;15.50;;;4.13;;
2558;SDS011;1289;53.488;10.006;2023-02-02T08:39:55;9.20;;;4.43;;
2558;SDS011;1289;53.488;10.006;2023-02-02T08:42:22;12.13;;;3.97;;
2558;SDS011;1289;53.488;10.006;2023-02-02T08:44:50;8.03;;;4.30;;
2558;SDS011;1289;53.488;10.006;2023-02-02T08:47:17;12.43;;;3.93;;
2558;SDS011;1289;53.488;10.006;2023-02-02T08:49:43;13.80;;;3.93;;
2558;SDS011;1289;53.488;10.006;2023-02-02T08:52:10;8.20;;;3.70;;
2558;SDS011;1289;53.488;10.006;2023-02-02T08:54:37;10.07;;;3.70;;
2558;SDS011;1289;53.488;10.006;2023-02-02T08:57:03;5.50;;;3.30;;
2558;SDS011;1289;53.488;10.006;2023-02-02T08:59:30;10.97;;;4.00;;
2558;SDS011;1289;53.488;10.006;2023-02-02T09:01:58;9.73;;;4.70;;
2558;SDS011;1289;53.488;10.006;2023-02-02T09:04:24;10.13;;;4.00;;
2558;SDS011;1289;53.488;10.006;2023-02-02T09:06:51;12.10;;;4.40;;
2558;SDS011;1289;53.488;10.006;2023-02-02T09:09:17;8.30;;;3.87;;
2558;SDS011;1289;53.488;10.006;2023-02-02T09:11:44;10.77;;;4.07;;
2558;SDS011;1289;53.488;10.006;2023-02-02T09:14:11;8.57;;;4.10;;
2558;SDS011;1289;53.488;10.006;2023-02-02T09:16:38;11.93;;;3.40;;
2558;SDS011;1289;53.488;10.006;2023-02-02T09:19:07;10.07;;;3.70;;
2558;SDS011;1289;53.488;10.006;2023-02-02T09:21:34;10.50;;;3.70;;
2558;SDS011;1289;53.488;10.006;2023-02-02T09:24:04;8.60;;;4.47;;
2558;SDS011;1289;53.488;10.006;2023-02-02T09:26:32;8.50;;;3.70;;
2558;SDS011;1289;53.488;10.006;2023-02-02T09:28:59;6.00;;;3.50;;
2558;SDS011;1289;53.488;10.006;2023-02-02T09:31:27;7.43;;;3.93;;
2558;SDS011;1289;53.488;10.006;2023-02-02T09:33:58;7.20;;;3.67;;
2558;SDS011;1289;53.488;10.006;2023-02-02T09:36:27;8.53;;;3.60;;
2558;SDS011;1289;53.488;10.006;2023-02-02T09:38:53;11.37;;;5.10;;
2558;SDS011;1289;53.488;10.006;2023-02-02T09:44:22;5.53;;;3.63;;
2558;SDS011;1289;53.488;10.006;2023-02-02T09:47:00;10.20;;;3.90;;
2558;SDS011;1289;53.488;10.006;2023-02-02T09:49:32;6.87;;;3.80;;
2558;SDS011;1289;53.488;10.006;2023-02-02T09:52:06;6.67;;;3.67;;
2558;SDS011;1289;53.488;10.006;2023-02-02T09:54:35;10.80;;;4.07;;
2558;SDS011;1289;53.488;10.006;2023-02-02T09:57:09;8.07;;;3.40;;
2558;SDS011;1289;53.488;10.006;2023-02-02T09:59:39;10.07;;;5.30;;
2558;SDS011;1289;53.488;10.006;2023-02-02T10:02:12;6.83;;;3.30;;
2558;SDS011;1289;53.488;10.006;2023-02-02T10:04:42;8.30;;;3.73;;
2558;SDS011;1289;53.488;10.006;2023-02-02T10:07:13;9.23;;;3.60;;
2558;SDS011;1289;53.488;10.006;2023-02-02T10:09:43;12.90;;;3.60;;
2558;SDS011;1289;53.488;10.006;2023-02-02T10:12:17;11.27;;;3.03;;
2558;SDS011;1289;53.488;10.006;2023-02-02T10:14:51;8.67;;;4.47;;
2558;SDS011;1289;53.488;10.006;2023-02-02T10:17:30;7.50;;;2.77;;
2558;SDS011;1289;53.488;10.006;2023-02-02T10:20:04;9.17;;;3.30;;
2558;SDS011;1289;53.488;10.006;2023-02-02T10:22:40;5.70;;;3.20;;
2558;SDS011;1289;53.488;10.006;2023-02-02T10:25:07;6.13;;;3.40;;
2558;SDS011;1289;53.488;10.006;2023-02-02T10:27:38;7.80;;;3.70;;
2558;SDS011;1289;53.488;10.006;2023-02-02T10:30:07;6.50;;;2.77;;
2558;SDS011;1289;53.488;10.006;2023-02-02T10:32:42;7.53;;;3.10;;
2558;SDS011;1289;53.488;10.006;2023-02-02T10:35:20;7.77;;;3.33;;
2558;SDS011;1289;53.488;10.006;2023-02-02T10:37:55;7.03;;;3.60;;
2558;SDS011;1289;53.488;10.006;2023-02-02T10:40:31;7.70;;;3.50;;
2558;SDS011;1289;53.488;10.006;2023-02-02T10:43:19;8.50;;;4.10;;
2558;SDS011;1289;53.488;10.006;2023-02-02T10:46:10;11.43;;;3.80;;
2558;SDS011;1289;53.488;10.006;2023-02-02T10:48:40;5.50;;;3.60;;
2558;SDS011;1289;53.488;10.006;2023-02-02T10:51:10;4.70;;;3.00;;
2558;SDS011;1289;53.488;10.006;2023-02-02T10:53:41;5.87;;;3.73;;
2558;SDS011;1289;53.488;10.006;2023-02-02T10:56:09;8.00;;;3.10;;
2558;SDS011;1289;53.488;10.006;2023-02-02T10:58:39;9.93;;;3.23;;
2558;SDS011;1289;53.488;10.006;2023-02-02T11:01:09;5.97;;;3.43;;
2558;SDS011;1289;53.488;10.006;2023-02-02T11:03:36;4.10;;;3.07;;
2558;SDS011;1289;53.488;10.006;2023-02-02T11:06:06;5.60;;;3.33;;
2558;SDS011;1289;53.488;10.006;2023-02-02T11:08:52;6.97;;;3.50;;
2558;SDS011;1289;53.488;10.006;2023-02-02T11:11:23;8.63;;;4.00;;
2558;SDS011;1289;53.488;10.006;2023-02-02T11:13:52;5.17;;;3.47;;
2558;SDS011;1289;53.488;10.006;2023-02-02T11:16:25;7.43;;;4.80;;
2558;SDS011;1289;53.488;10.006;2023-02-02T11:19:22;7.00;;;3.67;;
2558;SDS011;1289;53.488;10.006;2023-02-02T11:21:52;12.43;;;4.27;;
2558;SDS011;1289;53.488;10.006;2023-02-02T11:24:22;5.60;;;3.07;;
2558;SDS011;1289;53.488;10.006;2023-02-02T11:26:50;5.60;;;3.40;;
2558;SDS011;1289;53.488;10.006;2023-02-02T11:29:21;9.70;;;4.07;;
2558;SDS011;1289;53.488;10.006;2023-02-02T11:31:52;8.57;;;3.90;;
2558;SDS011;1289;53.488;10.006;2023-02-02T11:34:19;4.73;;;3.47;;
2558;SDS011;1289;53.488;10.006;2023-02-02T11:37:01;4.70;;;4.00;;
2558;SDS011;1289;53.488;10.006;2023-02-02T11:39:35;6.17;;;3.23;;
2558;SDS011;1289;53.488;10.006;2023-02-02T11:42:03;6.70;;;3.50;;
2558;SDS011;1289;53.488;10.006;2023-02-02T11:44:31;4.67;;;3.07;;
2558;SDS011;1289;53.488;10.006;2023-02-02T11:47:00;6.83;;;3.13;;
2558;SDS011;1289;53.488;10.006;2023-02-02T11:49:36;7.70;;;2.80;;
2558;SDS011;1289;53.488;10.006;2023-02-02T11:52:04;5.07;;;3.50;;
2558;SDS011;1289;53.488;10.006;2023-02-02T11:54:33;6.83;;;2.90;;
2558;SDS011;1289;53.488;10.006;2023-02-02T11:57:03;4.90;;;3.10;;
2558;SDS011;1289;53.488;10.006;2023-02-02T11:59:32;5.20;;;3.43;;
2558;SDS011;1289;53.488;10.006;2023-02-02T12:02:09;4.70;;;3.33;;
2558;SDS011;1289;53.488;10.006;2023-02-02T12:04:45;3.60;;;2.90;;
2558;SDS011;1289;53.488;10.006;2023-02-02T12:07:16;5.33;;;2.63;;
2558;SDS011;1289;53.488;10.006;2023-02-02T12:09:44;8.37;;;3.83;;
2558;SDS011;1289;53.488;10.006;2023-02-02T12:12:17;4.10;;;2.80;;
2558;SDS011;1289;53.488;10.006;2023-02-02T12:14:52;4.73;;;2.93;;
2558;SDS011;1289;53.488;10.006;2023-02-02T12:17:24;2.60;;;2.30;;
2558;SDS011;1289;53.488;10.006;2023-02-02T12:20:05;5.40;;;3.43;;
2558;SDS011;1289;53.488;10.006;2023-02-02T12:22:40;5.30;;;3.10;;
2558;SDS011;1289;53.488;10.006;2023-02-02T12:25:35;8.97;;;3.83;;
2558;SDS011;1289;53.488;10.006;2023-02-02T12:28:14;5.23;;;3.40;;
2558;SDS011;1289;53.488;10.006;2023-02-02T12:30:45;3.50;;;2.50;;
2558;SDS011;1289;53.488;10.006;2023-02-02T12:33:19;8.67;;;3.40;;
2558;SDS011;1289;53.488;10.006;2023-02-02T12:35:56;14.77;;;3.20;;
2558;SDS011;1289;53.488;10.006;2023-02-02T12:38:38;6.97;;;3.03;;
2558;SDS011;1289;53.488;10.006;2023-02-02T12:41:22;3.90;;;2.63;;
2558;SDS011;1289;53.488;10.006;2023-02-02T12:43:56;3.50;;;2.63;;
2558;SDS011;1289;53.488;10.006;2023-02-02T12:46:32;9.90;;;3.20;;
2558;SDS011;1289;53.488;10.006;2023-02-02T12:49:18;4.20;;;3.23;;
2558;SDS011;1289;53.488;10.006;2023-02-02T12:51:54;7.47;;;3.00;;
2558;SDS011;1289;53.488;10.006;2023-02-02T12:54:39;5.77;;;2.90;;
2558;SDS011;1289;53.488;10.006;2023-02-02T12:57:14;3.93;;;3.13;;
2558;SDS011;1289;53.488;10.006;2023-02-02T12:59:56;5.93;;;3.23;;
2558;SDS011;1289;53.488;10.006;2023-02-02T13:02:30;7.57;;;3.07;;
2558;SDS011;1289;53.488;10.006;2023-02-02T13:05:03;7.40;;;2.70;;
2558;SDS011;1289;53.488;10.006;2023-02-02T13:07:39;4.63;;;3.00;;
2558;SDS011;1289;53.488;10.006;2023-02-02T13:10:17;3.40;;;2.60;;
2558;SDS011;1289;53.488;10.006;2023-02-02T13:12:49;3.00;;;2.73;;
2558;SDS011;1289;53.488;10.006;2023-02-02T13:15:20;3.43;;;3.10;;
2558;SDS011;1289;53.488;10.006;2023-02-02T13:17:48;4.53;;;3.23;;
2558;SDS011;1289;53.488;10.006;2023-02-02T13:20:20;5.70;;;3.10;;
2558;SDS011;1289;53.488;10.006;2023-02-02T13:22:51;6.77;;;3.17;;
2558;SDS011;1289;53.488;10.006;2023-02-02T13:25:21;4.60;;;3.70;;
2558;SDS011;1289;53.488;10.006;2023-02-02T13:27:50;3.30;;;3.00;;
2558;SDS011;1289;53.488;10.006;2023-02-02T13:30:21;4.60;;;3.60;;
2558;SDS011;1289;53.488;10.006;2023-02-02T13:32:56;3.33;;;3.07;;
2558;SDS011;1289;53.488;10.006;2023-02-02T13:35:26;8.43;;;3.00;;
2558;SDS011;1289;53.488;10.006;2023-02-02T13:37:58;3.90;;;3.50;;
2558;SDS011;1289;53.488;10.006;2023-02-02T13:40:29;5.27;;;3.17;;
2558;SDS011;1289;53.488;10.006;2023-02-02T13:43:01;5.40;;;2.77;;
2558;SDS011;1289;53.488;10.006;2023-02-02T13:45:34;4.77;;;2.80;;
2558;SDS011;1289;53.488;10.006;2023-02-02T13:48:09;4.77;;;3.60;;
2558;SDS011;1289;53.488;10.006;2023-02-02T13:50:45;5.00;;;2.67;;
2558;SDS011;1289;53.488;10.006;2023-02-02T13:53:24;3.73;;;2.77;;
2558;SDS011;1289;53.488;10.006;2023-02-02T13:56:02;5.57;;;3.07;;
2558;SDS011;1289;53.488;10.006;2023-02-02T13:58:53;5.87;;;3.00;;
2558;SDS011;1289;53.488;10.006;2023-02-02T14:01:31;7.60;;;3.07;;
2558;SDS011;1289;53.488;10.006;2023-02-02T14:03:57;3.03;;;2.60;;
2558;SDS011;1289;53.488;10.006;2023-02-02T14:06:25;6.13;;;2.90;;
2558;SDS011;1289;53.488;10.006;2023-02-02T14:08:55;8.73;;;3.67;;
2558;SDS011;1289;53.488;10.006;2023-02-02T14:11:24;11.40;;;3.13;;
2558;SDS011;1289;53.488;10.006;2023-02-02T14:13:53;3.53;;;3.00;;
2558;SDS011;1289;53.488;10.006;2023-02-02T14:16:48;5.37;;;2.90;;
2558;SDS011;1289;53.488;10.006;2023-02-02T14:19:48;5.83;;;2.80;;
2558;SDS011;1289;53.488;10.006;2023-02-02T14:22:18;3.93;;;2.90;;
2558;SDS011;1289;53.488;10.006;2023-02-02T14:25:01;11.50;;;4.70;;
2558;SDS011;1289;53.488;10.006;2023-02-02T14:27:52;5.93;;;3.10;;
2558;SDS011;1289;53.488;10.006;2023-02-02T14:30:25;4.60;;;3.50;;
2558;SDS011;1289;53.488;10.006;2023-02-02T14:35:54;8.77;;;3.33;;
2558;SDS011;1289;53.488;10.006;2023-02-02T14:38:29;9.73;;;3.73;;
2558;SDS011;1289;53.488;10.006;2023-02-02T14:41:17;7.10;;;3.80;;
2558;SDS011;1289;53.488;10.006;2023-02-02T14:44:04;3.67;;;2.97;;
2558;SDS011;1289;53.488;10.006;2023-02-02T14:46:35;4.43;;;3.10;;
2558;SDS011;1289;53.488;10.006;2023-02-02T14:51:57;4.90;;;3.13;;
2558;SDS011;1289;53.488;10.006;2023-02-02T14:54:35;7.17;;;3.40;;
2558;SDS011;1289;53.488;10.006;2023-02-02T14:57:04;5.97;;;2.83;;
2558;SDS011;1289;53.488;10.006;2023-02-02T14:59:45;5.70;;;2.83;;
2558;SDS011;1289;53.488;10.006;2023-02-02T15:02:14;3.83;;;2.60;;
2558;SDS011;1289;53.488;10.006;2023-02-02T15:04:42;3.90;;;2.63;;
2558;SDS011;1289;53.488;10.006;2023-02-02T15:13:24;7.17;;;3.13;;
2558;SDS011;1289;53.488;10.006;2023-02-02T15:15:54;3.60;;;2.67;;
2558;SDS011;1289;53.488;10.006;2023-02-02T15:18:30;8.37;;;3.27;;
2558;SDS011;1289;53.488;10.006;2023-02-02T15:21:00;4.73;;;3.00;;
2558;SDS011;1289;53.488;10.006;2023-02-02T15:23:28;4.67;;;2.90;;
2558;SDS011;1289;53.488;10.006;2023-02-02T15:25:58;2.80;;;2.60;;
2558;SDS011;1289;53.488;10.006;2023-02-02T15:28:31;7.03;;;3.27;;
2558;SDS011;1289;53.488;10.006;2023-02-02T15:31:04;7.40;;;3.07;;